Wetterstation Vordersexau
Wetterdaten: Woche 16.07.18 - 22.07.18 (KW29)
Datum Zeit Temp. A. Feuchte A. Luftdruck Regen Wind Richtung Taupunkt Windchill Windben
16.07.2018 00:00 18,6 C 79 % 1012,6 hPa 0,0 l/m 0,0 km/h N-NO 14,9 C 18,6 C 0,0 km/h
16.07.2018 01:00 18,2 C 80 % 1012,0 hPa 0,0 l/m 0,0 km/h N-NO 14,7 C 18,2 C 0,0 km/h
16.07.2018 02:00 17,9 C 80 % 1012,2 hPa 0,0 l/m 0,0 km/h N-NO 14,4 C 17,9 C 0,0 km/h
16.07.2018 03:00 17,3 C 81 % 1012,1 hPa 0,0 l/m 0,0 km/h N-NO 14,0 C 17,3 C 0,0 km/h
16.07.2018 04:00 16,6 C 82 % 1012,1 hPa 0,0 l/m 0,0 km/h N-NO 13,5 C 16,6 C 0,0 km/h
16.07.2018 05:00 15,8 C 83 % 1012,1 hPa 0,0 l/m 0,0 km/h N-NO 12,9 C 15,8 C 0,0 km/h
16.07.2018 06:00 15,9 C 83 % 1012,4 hPa 0,0 l/m 0,0 km/h N-NO 13,0 C 15,9 C 0,0 km/h
16.07.2018 07:00 17,6 C 81 % 1012,3 hPa 0,0 l/m 0,0 km/h N 14,3 C 17,6 C 0,0 km/h
16.07.2018 08:00 19,5 C 75 % 1011,9 hPa 0,0 l/m 0,0 km/h NW 14,9 C 19,5 C 0,0 km/h
16.07.2018 09:00 20,9 C 72 % 1011,3 hPa 0,0 l/m 0,0 km/h SW 15,7 C 20,9 C 0,0 km/h
16.07.2018 10:00 22,8 C 67 % 1011,1 hPa 0,0 l/m 7,8 km/h W-SW 16,3 C 22,4 C 4,3 km/h
16.07.2018 11:00 25,2 C 59 % 1010,8 hPa 0,0 l/m 9,7 km/h N-NW 16,6 C 24,4 C 5,4 km/h
16.07.2018 12:00 26,3 C 53 % 1010,1 hPa 0,0 l/m 17,5 km/h N-NW 15,9 C 24,6 C 9,7 km/h
16.07.2018 13:00 27,5 C 46 % 1009,5 hPa 0,0 l/m 0,0 km/h W 14,8 C 27,5 C 0,0 km/h
16.07.2018 14:00 28,2 C 41 % 1008,9 hPa 0,0 l/m 0,0 km/h N-NW 13,7 C 28,2 C 0,0 km/h
16.07.2018 15:00 28,3 C 41 % 1008,3 hPa 0,0 l/m 9,7 km/h W 13,8 C 27,8 C 5,4 km/h
16.07.2018 16:00 29,6 C 38 % 1008,1 hPa 0,0 l/m 0,0 km/h NW 13,8 C 29,6 C 0,0 km/h
16.07.2018 17:00 29,3 C 37 % 1007,8 hPa 0,0 l/m 7,1 km/h N 13,1 C 29,2 C 4,0 km/h
16.07.2018 18:00 28,8 C 36 % 1007,7 hPa 0,0 l/m 4,5 km/h N-NW 12,2 C 28,8 C 2,5 km/h
16.07.2018 19:00 27,9 C 39 % 1008,0 hPa 0,0 l/m 0,0 km/h N-NW 12,6 C 27,9 C 0,0 km/h
16.07.2018 20:00 26,4 C 44 % 1008,6 hPa 0,0 l/m 0,0 km/h NO 13,1 C 26,4 C 0,0 km/h
16.07.2018 21:00 22,6 C 55 % 1009,2 hPa 0,0 l/m 0,0 km/h NO 13,1 C 22,6 C 0,0 km/h
16.07.2018 22:00 20,5 C 60 % 1010,0 hPa 0,0 l/m 0,0 km/h O-NO 12,5 C 20,5 C 0,0 km/h
16.07.2018 23:00 19,6 C 63 % 1010,5 hPa 0,0 l/m 0,0 km/h O-NO 12,4 C 19,6 C 0,0 km/h
17.07.2018 00:00 17,9 C 69 % 1011,0 hPa 0,0 l/m 0,0 km/h O-NO 12,1 C 17,9 C 0,0 km/h
17.07.2018 01:00 17,2 C 71 % 1011,1 hPa 0,0 l/m 0,0 km/h O-NO 11,9 C 17,2 C 0,0 km/h
17.07.2018 02:00 16,6 C 73 % 1011,2 hPa 0,0 l/m 0,0 km/h O-NO 11,7 C 16,6 C 0,0 km/h
17.07.2018 03:00 15,9 C 75 % 1011,3 hPa 0,0 l/m 0,0 km/h O-NO 11,5 C 15,9 C 0,0 km/h
17.07.2018 04:00 15,3 C 76 % 1011,7 hPa 0,0 l/m 0,0 km/h O-NO 11,1 C 15,3 C 0,0 km/h
17.07.2018 05:00 14,9 C 78 % 1012,3 hPa 0,0 l/m 0,0 km/h O 11,1 C 14,9 C 0,0 km/h
17.07.2018 06:00 15,5 C 79 % 1012,7 hPa 0,0 l/m 0,0 km/h O-SO 11,9 C 15,5 C 0,0 km/h
17.07.2018 07:00 18,1 C 74 % 1012,8 hPa 0,0 l/m 0,0 km/h O-SO 13,4 C 18,1 C 0,0 km/h
17.07.2018 08:00 20,9 C 68 % 1013,0 hPa 0,0 l/m 0,0 km/h SW 14,8 C 20,9 C 0,0 km/h
17.07.2018 09:00 23,2 C 60 % 1013,1 hPa 0,0 l/m 0,0 km/h SW 15,0 C 23,2 C 0,0 km/h
17.07.2018 10:00 24,9 C 56 % 1013,4 hPa 0,0 l/m 0,0 km/h W-SW 15,5 C 24,9 C 0,0 km/h
17.07.2018 11:00 27,6 C 49 % 1013,1 hPa 0,0 l/m 0,0 km/h W-SW 15,9 C 27,6 C 0,0 km/h
17.07.2018 12:00 28,4 C 43 % 1012,7 hPa 0,0 l/m 0,0 km/h W 14,6 C 28,4 C 0,0 km/h
17.07.2018 13:00 26,7 C 51 % 1012,9 hPa 0,0 l/m 20,7 km/h S-SW 15,7 C 24,8 C 11,5 km/h
17.07.2018 14:00 26,1 C 51 % 1012,9 hPa 0,0 l/m 18,8 km/h SW 15,2 C 24,2 C 10,4 km/h
17.07.2018 15:00 29,1 C 37 % 1012,8 hPa 0,0 l/m 7,1 km/h W-SW 12,9 C 29,0 C 4,0 km/h
17.07.2018 16:00 29,6 C 37 % 1012,7 hPa 0,0 l/m 0,0 km/h W-SW 13,3 C 29,6 C 0,0 km/h
17.07.2018 17:00 29,3 C 39 % 1012,7 hPa 0,0 l/m 13,6 km/h S-SW 13,9 C 28,6 C 7,6 km/h
17.07.2018 18:00 26,3 C 52 % 1012,8 hPa 0,0 l/m 3,2 km/h N 15,6 C 26,3 C 1,8 km/h
17.07.2018 19:00 26,7 C 46 % 1012,9 hPa 0,0 l/m 0,0 km/h N 14,1 C 26,7 C 0,0 km/h
17.07.2018 20:00 24,1 C 54 % 1013,2 hPa 0,0 l/m 0,0 km/h N 14,2 C 24,1 C 0,0 km/h
17.07.2018 21:00 22,7 C 59 % 1013,7 hPa 0,0 l/m 0,0 km/h W 14,3 C 22,7 C 0,0 km/h
17.07.2018 22:00 21,4 C 64 % 1014,7 hPa 0,0 l/m 0,0 km/h NW 14,3 C 21,4 C 0,0 km/h
17.07.2018 23:00 20,7 C 66 % 1014,6 hPa 0,0 l/m 0,0 km/h O-SO 14,1 C 20,7 C 0,0 km/h
18.07.2018 00:00 19,8 C 68 % 1014,4 hPa 0,0 l/m 0,0 km/h O-SO 13,7 C 19,8 C 0,0 km/h
18.07.2018 01:00 18,3 C 73 % 1014,6 hPa 0,0 l/m 0,0 km/h SO 13,4 C 18,3 C 0,0 km/h
18.07.2018 02:00 17,3 C 76 % 1014,8 hPa 0,0 l/m 0,0 km/h SO 13,0 C 17,3 C 0,0 km/h
18.07.2018 03:00 16,1 C 79 % 1014,9 hPa 0,0 l/m 0,0 km/h O 12,5 C 16,1 C 0,0 km/h
18.07.2018 04:00 15,6 C 80 % 1015,0 hPa 0,0 l/m 0,0 km/h O 12,2 C 15,6 C 0,0 km/h
18.07.2018 05:00 15,5 C 80 % 1015,1 hPa 0,0 l/m 0,0 km/h O-SO 12,1 C 15,5 C 0,0 km/h
18.07.2018 06:00 15,9 C 81 % 1015,2 hPa 0,0 l/m 0,0 km/h SO 12,6 C 15,9 C 0,0 km/h
18.07.2018 07:00 17,8 C 78 % 1015,2 hPa 0,0 l/m 0,0 km/h O-SO 13,9 C 17,8 C 0,0 km/h
18.07.2018 08:00 20,2 C 71 % 1015,4 hPa 0,0 l/m 0,0 km/h NW 14,8 C 20,2 C 0,0 km/h
18.07.2018 09:00 22,1 C 65 % 1015,3 hPa 0,0 l/m 0,0 km/h W 15,2 C 22,1 C 0,0 km/h
18.07.2018 10:00 23,9 C 59 % 1014,9 hPa 0,0 l/m 0,0 km/h W 15,4 C 23,9 C 0,0 km/h
18.07.2018 11:00 25,9 C 56 % 1014,8 hPa 0,0 l/m 0,0 km/h N-NW 16,4 C 25,9 C 0,0 km/h
18.07.2018 12:00 27,0 C 52 % 1014,2 hPa 0,0 l/m 0,0 km/h W 16,3 C 27,0 C 0,0 km/h
18.07.2018 13:00 28,1 C 48 % 1013,7 hPa 0,0 l/m 0,0 km/h W-NW 16,0 C 28,1 C 0,0 km/h
18.07.2018 14:00 29,1 C 43 % 1013,2 hPa 0,0 l/m 0,0 km/h W 15,2 C 29,1 C 0,0 km/h
18.07.2018 15:00 29,7 C 38 % 1012,9 hPa 0,0 l/m 0,0 km/h N-NW 13,8 C 29,7 C 0,0 km/h
18.07.2018 16:00 30,3 C 37 % 1012,6 hPa 0,0 l/m 5,2 km/h N-NW 14,0 C 30,3 C 2,9 km/h
18.07.2018 17:00 30,1 C 38 % 1012,2 hPa 0,0 l/m 1,3 km/h N-NW 14,2 C 30,1 C 0,7 km/h
18.07.2018 18:00 29,4 C 39 % 1012,0 hPa 0,0 l/m 0,0 km/h N 14,0 C 29,4 C 0,0 km/h
18.07.2018 19:00 28,2 C 41 % 1012,2 hPa 0,0 l/m 0,0 km/h N-NO 13,7 C 28,2 C 0,0 km/h
18.07.2018 20:00 26,5 C 44 % 1012,3 hPa 0,0 l/m 0,0 km/h N-NO 13,2 C 26,5 C 0,0 km/h
18.07.2018 21:00 24,2 C 51 % 1012,8 hPa 0,0 l/m 0,0 km/h N-NO 13,4 C 24,2 C 0,0 km/h
18.07.2018 22:00 21,6 C 57 % 1013,1 hPa 0,0 l/m 0,0 km/h NO 12,7 C 21,6 C 0,0 km/h
18.07.2018 23:00 20,4 C 62 % 1013,3 hPa 0,0 l/m 0,0 km/h O-SO 12,9 C 20,4 C 0,0 km/h
19.07.2018 00:00 20,1 C 63 % 1013,3 hPa 0,0 l/m 0,0 km/h O 12,8 C 20,1 C 0,0 km/h
19.07.2018 01:00 19,5 C 63 % 1013,6 hPa 0,0 l/m 0,0 km/h O 12,3 C 19,5 C 0,0 km/h
19.07.2018 02:00 17,6 C 69 % 1013,9 hPa 0,0 l/m 0,0 km/h O 11,8 C 17,6 C 0,0 km/h
19.07.2018 03:00 16,9 C 71 % 1013,8 hPa 0,0 l/m 0,0 km/h O 11,6 C 16,9 C 0,0 km/h
19.07.2018 04:00 16,3 C 74 % 1013,9 hPa 0,0 l/m 0,0 km/h O 11,7 C 16,3 C 0,0 km/h
19.07.2018 05:00 15,9 C 76 % 1013,9 hPa 0,0 l/m 0,0 km/h O 11,7 C 15,9 C 0,0 km/h
19.07.2018 06:00 15,8 C 78 % 1014,0 hPa 0,0 l/m 0,0 km/h N 12,0 C 15,8 C 0,0 km/h
19.07.2018 07:00 16,9 C 79 % 1014,0 hPa 0,0 l/m 0,0 km/h S-SO 13,2 C 16,9 C 0,0 km/h
19.07.2018 08:00 19,6 C 71 % 1014,3 hPa 0,0 l/m 0,0 km/h W 14,2 C 19,6 C 0,0 km/h
19.07.2018 09:00 22,2 C 61 % 1014,0 hPa 0,0 l/m 0,0 km/h N-NW 14,3 C 22,2 C 0,0 km/h
19.07.2018 10:00 24,3 C 58 % 1014,0 hPa 0,0 l/m 11,7 km/h W 15,5 C 23,0 C 6,5 km/h
19.07.2018 11:00 27,5 C 47 % 1013,6 hPa 0,0 l/m 0,0 km/h NW 15,2 C 27,5 C 0,0 km/h
19.07.2018 12:00 28,6 C 41 % 1013,2 hPa 0,0 l/m 0,0 km/h N 14,0 C 28,6 C 0,0 km/h
19.07.2018 13:00 29,3 C 38 % 1012,7 hPa 0,0 l/m 17,5 km/h N 13,5 C 28,4 C 9,7 km/h
19.07.2018 14:00 30,1 C 35 % 1012,5 hPa 0,0 l/m 0,0 km/h N-NW 12,9 C 30,1 C 0,0 km/h
19.07.2018 15:00 30,4 C 33 % 1012,3 hPa 0,0 l/m 5,8 km/h NW 12,3 C 30,4 C 3,2 km/h
19.07.2018 16:00 30,6 C 33 % 1011,9 hPa 0,0 l/m 20,1 km/h N 12,5 C 29,9 C 11,2 km/h
19.07.2018 17:00 29,6 C 34 % 1011,7 hPa 0,0 l/m 11,0 km/h N 12,1 C 29,2 C 6,1 km/h
19.07.2018 18:00 29,7 C 34 % 1011,5 hPa 0,0 l/m 20,7 km/h N 12,1 C 28,7 C 11,5 km/h
19.07.2018 19:00 28,8 C 34 % 1011,4 hPa 0,0 l/m 0,0 km/h N 11,4 C 28,8 C 0,0 km/h
19.07.2018 20:00 27,6 C 36 % 1011,8 hPa 0,0 l/m 0,0 km/h N-NO 11,2 C 27,6 C 0,0 km/h
19.07.2018 21:00 25,5 C 42 % 1012,0 hPa 0,0 l/m 0,0 km/h O-SO 11,6 C 25,5 C 0,0 km/h
19.07.2018 22:00 22,9 C 48 % 1012,4 hPa 0,0 l/m 0,0 km/h O 11,3 C 22,9 C 0,0 km/h
19.07.2018 23:00 21,6 C 53 % 1012,3 hPa 0,0 l/m 0,0 km/h O-NO 11,6 C 21,6 C 0,0 km/h
20.07.2018 00:00 20,1 C 57 % 1012,2 hPa 0,0 l/m 0,0 km/h O-NO 11,3 C 20,1 C 0,0 km/h
20.07.2018 01:00 19,4 C 61 % 1012,3 hPa 0,0 l/m 0,0 km/h O 11,7 C 19,4 C 0,0 km/h
20.07.2018 02:00 18,2 C 65 % 1011,9 hPa 0,0 l/m 0,0 km/h O 11,5 C 18,2 C 0,0 km/h
20.07.2018 03:00 17,8 C 66 % 1011,5 hPa 0,0 l/m 0,0 km/h O 11,4 C 17,8 C 0,0 km/h
20.07.2018 04:00 16,8 C 68 % 1011,2 hPa 0,0 l/m 0,0 km/h O 10,9 C 16,8 C 0,0 km/h
20.07.2018 05:00 16,5 C 71 % 1011,4 hPa 0,0 l/m 0,0 km/h O 11,2 C 16,5 C 0,0 km/h
20.07.2018 06:00 16,2 C 73 % 1011,5 hPa 0,0 l/m 0,0 km/h SO 11,4 C 16,2 C 0,0 km/h
20.07.2018 07:00 19,1 C 68 % 1011,4 hPa 0,0 l/m 0,0 km/h O-SO 13,1 C 19,1 C 0,0 km/h
20.07.2018 08:00 21,3 C 60 % 1011,2 hPa 0,0 l/m 0,0 km/h W 13,2 C 21,3 C 0,0 km/h
20.07.2018 09:00 23,3 C 54 % 1011,3 hPa 0,0 l/m 7,1 km/h W-NW 13,5 C 23,1 C 4,0 km/h
20.07.2018 10:00 25,1 C 52 % 1011,0 hPa 0,0 l/m 0,0 km/h W 14,5 C 25,1 C 0,0 km/h
20.07.2018 11:00 27,9 C 44 % 1010,7 hPa 0,0 l/m 0,0 km/h NW 14,5 C 27,9 C 0,0 km/h
20.07.2018 12:00 29,3 C 38 % 1010,1 hPa 0,0 l/m 0,0 km/h N-NW 13,5 C 29,3 C 0,0 km/h
20.07.2018 13:00 30,6 C 36 % 1009,6 hPa 0,0 l/m 0,0 km/h W-SW 13,8 C 30,6 C 0,0 km/h
20.07.2018 14:00 31,4 C 34 % 1009,1 hPa 0,0 l/m 0,0 km/h N 13,6 C 31,4 C 0,0 km/h
20.07.2018 15:00 29,8 C 37 % 1009,2 hPa 0,0 l/m 5,2 km/h SW 13,5 C 29,8 C 2,9 km/h
20.07.2018 16:00 23,8 C 56 % 1010,4 hPa 0,0 l/m 0,0 km/h S-SO 14,5 C 23,8 C 0,0 km/h
20.07.2018 17:00 22,6 C 65 % 1009,5 hPa 0,0 l/m 0,0 km/h SO 15,7 C 22,6 C 0,0 km/h
20.07.2018 18:00 22,1 C 69 % 1009,9 hPa 0,0 l/m 0,0 km/h N-NO 16,1 C 22,1 C 0,0 km/h
20.07.2018 19:00 19,8 C 78 % 1009,2 hPa 1,0 l/m 0,0 km/h W-NW 15,8 C 19,8 C 0,0 km/h
20.07.2018 20:00 19,8 C 80 % 1009,6 hPa 0,5 l/m 0,0 km/h SO 16,2 C 19,8 C 0,0 km/h
20.07.2018 21:00 18,8 C 81 % 1009,9 hPa 0,0 l/m 0,0 km/h O 15,5 C 18,8 C 0,0 km/h
20.07.2018 22:00 18,4 C 82 % 1009,7 hPa 0,0 l/m 0,0 km/h SO 15,3 C 18,4 C 0,0 km/h
20.07.2018 23:00 18,2 C 82 % 1009,9 hPa 0,0 l/m 0,0 km/h O-SO 15,1 C 18,2 C 0,0 km/h
21.07.2018 00:00 17,3 C 81 % 1009,8 hPa 5,7 l/m 0,0 km/h O-SO 14,0 C 17,3 C 0,0 km/h
21.07.2018 01:00 17,4 C 79 % 1009,7 hPa 1,0 l/m 0,0 km/h O 13,7 C 17,4 C 0,0 km/h
21.07.2018 02:00 17,2 C 77 % 1009,0 hPa 0,0 l/m 0,0 km/h O-NO 13,1 C 17,2 C 0,0 km/h
21.07.2018 03:00 17,2 C 76 % 1009,2 hPa 0,0 l/m 0,0 km/h O-NO 12,9 C 17,2 C 0,0 km/h
21.07.2018 04:00 17,1 C 77 % 1009,1 hPa 0,0 l/m 0,0 km/h SO 13,0 C 17,1 C 0,0 km/h
21.07.2018 05:00 17,0 C 77 % 1009,2 hPa 0,0 l/m 0,0 km/h O 12,9 C 17,0 C 0,0 km/h
21.07.2018 06:00 17,0 C 77 % 1009,3 hPa 0,0 l/m 0,0 km/h O-NO 12,9 C 17,0 C 0,0 km/h
21.07.2018 07:00 17,4 C 76 % 1009,5 hPa 0,0 l/m 0,0 km/h O-NO 13,1 C 17,4 C 0,0 km/h
21.07.2018 08:00 18,4 C 75 % 1009,9 hPa 0,0 l/m 0,0 km/h W-SW 13,9 C 18,4 C 0,0 km/h
21.07.2018 09:00 19,9 C 82 % 1010,3 hPa 0,0 l/m 0,0 km/h W-SW 16,7 C 19,9 C 0,0 km/h
21.07.2018 10:00 19,6 C 81 % 1010,7 hPa 0,0 l/m 0,0 km/h S 16,2 C 19,6 C 0,0 km/h
21.07.2018 11:00 21,0 C 78 % 1010,7 hPa 0,0 l/m 7,8 km/h W-SW 17,0 C 20,5 C 4,3 km/h
21.07.2018 12:00 22,8 C 69 % 1010,7 hPa 0,0 l/m 27,9 km/h W-SW 16,8 C 18,9 C 15,5 km/h
21.07.2018 13:00 22,5 C 69 % 1010,5 hPa 0,5 l/m 13,0 km/h W-SW 16,5 C 20,7 C 7,2 km/h
21.07.2018 14:00 22,3 C 72 % 1010,4 hPa 0,0 l/m 31,8 km/h S-SW 17,0 C 17,8 C 17,6 km/h
21.07.2018 15:00 22,8 C 69 % 1010,4 hPa 0,0 l/m 0,0 km/h W-SW 16,8 C 22,8 C 0,0 km/h
21.07.2018 16:00 23,3 C 66 % 1010,0 hPa 0,0 l/m 0,6 km/h NO 16,6 C 23,3 C 0,4 km/h
21.07.2018 17:00 22,6 C 70 % 1010,1 hPa 0,0 l/m 0,0 km/h O 16,8 C 22,6 C 0,0 km/h
21.07.2018 18:00 20,8 C 75 % 1010,4 hPa 0,0 l/m 0,6 km/h N-NO 16,2 C 20,8 C 0,4 km/h
21.07.2018 19:00 19,8 C 79 % 1010,3 hPa 0,0 l/m 0,0 km/h NO 16,0 C 19,8 C 0,0 km/h
21.07.2018 20:00 19,1 C 82 % 1010,4 hPa 0,0 l/m 0,0 km/h SO 16,0 C 19,1 C 0,0 km/h
21.07.2018 21:00 18,8 C 81 % 1011,0 hPa 0,0 l/m 0,0 km/h O-SO 15,5 C 18,8 C 0,0 km/h
21.07.2018 22:00 18,4 C 82 % 1011,5 hPa 0,0 l/m 0,0 km/h NO 15,3 C 18,4 C 0,0 km/h
21.07.2018 23:00 17,9 C 83 % 1011,4 hPa 0,0 l/m 0,0 km/h O-NO 15,0 C 17,9 C 0,0 km/h
22.07.2018 00:00 17,5 C 82 % 1011,5 hPa 0,0 l/m 0,0 km/h O-NO 14,4 C 17,5 C 0,0 km/h
22.07.2018 01:00 17,0 C 82 % 1011,3 hPa 0,0 l/m 0,0 km/h O-NO 13,9 C 17,0 C 0,0 km/h
22.07.2018 02:00 17,0 C 82 % 1011,5 hPa 0,0 l/m 0,0 km/h O-NO 13,9 C 17,0 C 0,0 km/h
22.07.2018 03:00 16,6 C 82 % 1011,4 hPa 0,0 l/m 0,0 km/h O-SO 13,5 C 16,6 C 0,0 km/h
22.07.2018 04:00 16,2 C 81 % 1011,5 hPa 0,0 l/m 0,0 km/h O-SO 12,9 C 16,2 C 0,0 km/h
22.07.2018 05:00 16,1 C 81 % 1011,5 hPa 0,0 l/m 0,0 km/h O-SO 12,8 C 16,1 C 0,0 km/h
22.07.2018 06:00 16,4 C 81 % 1012,0 hPa 0,0 l/m 0,0 km/h O-SO 13,1 C 16,4 C 0,0 km/h
22.07.2018 07:00 17,0 C 80 % 1012,1 hPa 0,0 l/m 0,0 km/h O-SO 13,5 C 17,0 C 0,0 km/h
22.07.2018 08:00 18,3 C 81 % 1012,4 hPa 0,0 l/m 0,0 km/h O-NO 15,0 C 18,3 C 0,0 km/h
22.07.2018 09:00 19,3 C 83 % 1012,5 hPa 0,0 l/m 0,0 km/h S-SW 16,3 C 19,3 C 0,0 km/h
22.07.2018 10:00 20,4 C 79 % 1012,6 hPa 0,0 l/m 0,0 km/h S 16,6 C 20,4 C 0,0 km/h
22.07.2018 11:00 21,7 C 75 % 1012,9 hPa 0,0 l/m 0,0 km/h SW 17,1 C 21,7 C 0,0 km/h
22.07.2018 12:00 23,8 C 64 % 1012,7 hPa 0,0 l/m 0,0 km/h W-SW 16,6 C 23,8 C 0,0 km/h
22.07.2018 13:00 24,8 C 60 % 1012,1 hPa 0,0 l/m 0,0 km/h O-SO 16,5 C 24,8 C 0,0 km/h
22.07.2018 14:00 24,4 C 61 % 1011,8 hPa 0,0 l/m 0,0 km/h N 16,4 C 24,4 C 0,0 km/h
22.07.2018 15:00 24,4 C 61 % 1011,8 hPa 0,0 l/m 7,8 km/h O-NO 16,4 C 24,0 C 4,3 km/h
22.07.2018 16:00 21,4 C 78 % 1011,7 hPa 0,0 l/m 0,0 km/h SO 17,4 C 21,4 C 0,0 km/h
22.07.2018 17:00 23,6 C 71 % 1011,3 hPa 0,0 l/m 0,0 km/h NO 18,0 C 23,6 C 0,0 km/h
22.07.2018 18:00 22,5 C 69 % 1011,4 hPa 0,0 l/m 0,0 km/h N-NO 16,5 C 22,5 C 0,0 km/h
22.07.2018 19:00 21,4 C 75 % 1011,8 hPa 0,0 l/m 0,0 km/h O-NO 16,8 C 21,4 C 0,0 km/h
22.07.2018 20:00 20,3 C 79 % 1011,9 hPa 0,0 l/m 0,0 km/h O-NO 16,5 C 20,3 C 0,0 km/h
22.07.2018 21:00 19,6 C 80 % 1012,7 hPa 0,0 l/m 0,0 km/h O-SO 16,1 C 19,6 C 0,0 km/h
22.07.2018 22:00 19,6 C 80 % 1013,0 hPa 0,0 l/m 0,0 km/h O-SO 16,1 C 19,6 C 0,0 km/h
22.07.2018 23:00 19,0 C 80 % 1013,3 hPa 0,0 l/m 0,0 km/h SO 15,5 C 19,0 C 0,0 km/h
Min-Datum _ 17.07.18 19.07.18 16.07.18 - 16.07.18 - 20.07.18 17.07.18 16.07.18
_ Min-Zeit 05:53 15:53 18:53 - 00:53 - 04:53 05:53 00:53
Minimum _ 14,9 C 33 % 1007,7 hPa - 0,0 km/h - 10,9 C 14,9 C 0,0 km/h
Max-Datum _ 20.07.18 16.07.18 18.07.18 21.07.18 21.07.18 - 22.07.18 20.07.18 21.07.18
_ Max-Zeit 14:53 05:53 08:53 00:53 14:53 - 17:53 14:53 14:53
Maximum _ 31,4 C 83 % 1015,4 hPa 5,7 l/m 31,8 km/h
S-SW
- 18,0 C 31,4 C 17,6 km/h
S-SW
Durchschnitt _ 21,9 C 64 % 1011,8 hPa #8,8 l/m 1,9 km/h O-NO 14,1 C 21,7 C 1,0 km/h
www.sexauwetter.de